sensor_id;sensor_type;location;lat;lon;timestamp;temperature;humidity
22714;DHT22;11524;50.846;4.326;2023-06-10T00:00:38;27.50;48.40
22714;DHT22;11524;50.846;4.326;2023-06-10T00:03:04;27.50;48.50
22714;DHT22;11524;50.846;4.326;2023-06-10T00:05:30;27.50;48.50
22714;DHT22;11524;50.846;4.326;2023-06-10T00:07:56;27.50;48.50
22714;DHT22;11524;50.846;4.326;2023-06-10T00:10:24;27.60;48.50
22714;DHT22;11524;50.846;4.326;2023-06-10T00:12:50;27.50;48.40
22714;DHT22;11524;50.846;4.326;2023-06-10T00:15:17;27.60;48.50
22714;DHT22;11524;50.846;4.326;2023-06-10T00:17:42;27.50;48.60
22714;DHT22;11524;50.846;4.326;2023-06-10T00:20:09;27.50;48.70
22714;DHT22;11524;50.846;4.326;2023-06-10T00:22:37;27.50;48.70
22714;DHT22;11524;50.846;4.326;2023-06-10T00:25:05;27.50;48.70
22714;DHT22;11524;50.846;4.326;2023-06-10T00:27:31;27.50;48.70
22714;DHT22;11524;50.846;4.326;2023-06-10T00:30:02;27.40;48.60
22714;DHT22;11524;50.846;4.326;2023-06-10T00:32:30;27.40;48.50
22714;DHT22;11524;50.846;4.326;2023-06-10T00:38:08;27.40;48.60
22714;DHT22;11524;50.846;4.326;2023-06-10T00:40:39;27.40;48.50
22714;DHT22;11524;50.846;4.326;2023-06-10T00:43:06;27.40;48.40
22714;DHT22;11524;50.846;4.326;2023-06-10T00:45:32;27.40;48.50
22714;DHT22;11524;50.846;4.326;2023-06-10T00:48:01;27.40;48.90
22714;DHT22;11524;50.846;4.326;2023-06-10T00:50:27;27.40;49.00
22714;DHT22;11524;50.846;4.326;2023-06-10T00:52:54;27.40;49.10
22714;DHT22;11524;50.846;4.326;2023-06-10T00:55:21;27.40;49.20
22714;DHT22;11524;50.846;4.326;2023-06-10T00:57:47;27.40;49.20
22714;DHT22;11524;50.846;4.326;2023-06-10T01:00:16;27.40;49.30
22714;DHT22;11524;50.846;4.326;2023-06-10T01:02:42;27.40;49.00
22714;DHT22;11524;50.846;4.326;2023-06-10T01:05:09;27.40;49.70
22714;DHT22;11524;50.846;4.326;2023-06-10T01:07:50;27.30;49.00
22714;DHT22;11524;50.846;4.326;2023-06-10T01:10:24;27.30;49.00
22714;DHT22;11524;50.846;4.326;2023-06-10T01:13:00;27.30;48.90
22714;DHT22;11524;50.846;4.326;2023-06-10T01:15:31;27.30;48.60
22714;DHT22;11524;50.846;4.326;2023-06-10T01:18:08;27.30;48.10
22714;DHT22;11524;50.846;4.326;2023-06-10T01:20:37;27.30;48.60
22714;DHT22;11524;50.846;4.326;2023-06-10T01:23:06;27.30;48.40
22714;DHT22;11524;50.846;4.326;2023-06-10T01:28:40;27.30;48.30
22714;DHT22;11524;50.846;4.326;2023-06-10T01:34:03;27.30;48.10
22714;DHT22;11524;50.846;4.326;2023-06-10T01:36:32;27.30;48.20
22714;DHT22;11524;50.846;4.326;2023-06-10T01:38:59;27.30;48.10
22714;DHT22;11524;50.846;4.326;2023-06-10T01:41:29;27.30;48.10
22714;DHT22;11524;50.846;4.326;2023-06-10T01:43:54;27.30;48.30
22714;DHT22;11524;50.846;4.326;2023-06-10T01:46:20;27.30;48.30
22714;DHT22;11524;50.846;4.326;2023-06-10T01:48:46;27.30;48.20
22714;DHT22;11524;50.846;4.326;2023-06-10T01:51:12;27.20;47.60
22714;DHT22;11524;50.846;4.326;2023-06-10T01:53:38;27.20;47.60
22714;DHT22;11524;50.846;4.326;2023-06-10T01:56:03;27.20;47.70
22714;DHT22;11524;50.846;4.326;2023-06-10T01:58:29;27.30;47.60
22714;DHT22;11524;50.846;4.326;2023-06-10T02:00:55;27.20;47.50
22714;DHT22;11524;50.846;4.326;2023-06-10T02:03:20;27.20;47.60
22714;DHT22;11524;50.846;4.326;2023-06-10T02:05:46;27.20;47.40
22714;DHT22;11524;50.846;4.326;2023-06-10T02:08:11;27.20;47.80
22714;DHT22;11524;50.846;4.326;2023-06-10T02:10:37;27.20;47.30
22714;DHT22;11524;50.846;4.326;2023-06-10T02:13:03;27.20;47.30
22714;DHT22;11524;50.846;4.326;2023-06-10T02:15:28;27.20;47.40
22714;DHT22;11524;50.846;4.326;2023-06-10T02:17:54;27.20;47.00
22714;DHT22;11524;50.846;4.326;2023-06-10T02:20:21;27.20;46.90
22714;DHT22;11524;50.846;4.326;2023-06-10T02:22:46;27.20;46.40
22714;DHT22;11524;50.846;4.326;2023-06-10T02:25:12;27.20;46.70
22714;DHT22;11524;50.846;4.326;2023-06-10T02:27:38;27.10;46.90
22714;DHT22;11524;50.846;4.326;2023-06-10T02:30:03;27.10;47.20
22714;DHT22;11524;50.846;4.326;2023-06-10T02:32:29;27.10;46.90
22714;DHT22;11524;50.846;4.326;2023-06-10T02:34:55;27.10;47.10
22714;DHT22;11524;50.846;4.326;2023-06-10T02:37:20;27.10;47.30
22714;DHT22;11524;50.846;4.326;2023-06-10T02:39:46;27.00;47.30
22714;DHT22;11524;50.846;4.326;2023-06-10T02:42:12;27.00;47.10
22714;DHT22;11524;50.846;4.326;2023-06-10T02:44:38;27.00;47.30
22714;DHT22;11524;50.846;4.326;2023-06-10T02:47:04;27.00;46.90
22714;DHT22;11524;50.846;4.326;2023-06-10T02:49:30;27.00;47.00
22714;DHT22;11524;50.846;4.326;2023-06-10T02:51:55;27.00;46.80
22714;DHT22;11524;50.846;4.326;2023-06-10T02:54:23;27.00;47.00
22714;DHT22;11524;50.846;4.326;2023-06-10T02:56:49;27.00;47.40
22714;DHT22;11524;50.846;4.326;2023-06-10T02:59:15;27.00;47.30
22714;DHT22;11524;50.846;4.326;2023-06-10T03:01:41;27.00;47.00
22714;DHT22;11524;50.846;4.326;2023-06-10T03:04:07;27.00;46.90
22714;DHT22;11524;50.846;4.326;2023-06-10T03:06:33;27.00;46.70
22714;DHT22;11524;50.846;4.326;2023-06-10T03:09:03;26.90;46.60
22714;DHT22;11524;50.846;4.326;2023-06-10T03:11:29;26.90;46.80
22714;DHT22;11524;50.846;4.326;2023-06-10T03:13:56;26.90;47.10
22714;DHT22;11524;50.846;4.326;2023-06-10T03:16:22;26.90;46.90
22714;DHT22;11524;50.846;4.326;2023-06-10T03:18:49;26.90;46.70
22714;DHT22;11524;50.846;4.326;2023-06-10T03:21:14;26.90;47.10
22714;DHT22;11524;50.846;4.326;2023-06-10T03:23:40;26.90;47.10
22714;DHT22;11524;50.846;4.326;2023-06-10T03:26:06;27.00;47.30
22714;DHT22;11524;50.846;4.326;2023-06-10T03:28:31;26.90;47.30
22714;DHT22;11524;50.846;4.326;2023-06-10T03:30:57;26.90;47.50
22714;DHT22;11524;50.846;4.326;2023-06-10T03:33:23;26.90;46.80
22714;DHT22;11524;50.846;4.326;2023-06-10T03:35:49;26.90;46.70
22714;DHT22;11524;50.846;4.326;2023-06-10T03:38:15;26.90;46.80
22714;DHT22;11524;50.846;4.326;2023-06-10T03:40:40;26.90;46.70
22714;DHT22;11524;50.846;4.326;2023-06-10T03:43:06;26.90;46.70
22714;DHT22;11524;50.846;4.326;2023-06-10T03:45:31;26.90;46.90
22714;DHT22;11524;50.846;4.326;2023-06-10T03:47:58;26.90;47.20
22714;DHT22;11524;50.846;4.326;2023-06-10T03:50:23;26.90;47.00
22714;DHT22;11524;50.846;4.326;2023-06-10T03:52:50;26.90;47.00
22714;DHT22;11524;50.846;4.326;2023-06-10T03:55:16;26.90;47.00
22714;DHT22;11524;50.846;4.326;2023-06-10T03:57:42;26.90;47.00
22714;DHT22;11524;50.846;4.326;2023-06-10T04:00:09;26.90;46.90
22714;DHT22;11524;50.846;4.326;2023-06-10T04:02:41;26.90;46.80
22714;DHT22;11524;50.846;4.326;2023-06-10T04:05:17;26.90;46.80
22714;DHT22;11524;50.846;4.326;2023-06-10T04:07:43;26.90;46.90
22714;DHT22;11524;50.846;4.326;2023-06-10T04:10:12;26.90;47.10
22714;DHT22;11524;50.846;4.326;2023-06-10T04:12:38;26.90;47.30
22714;DHT22;11524;50.846;4.326;2023-06-10T04:15:04;26.90;47.40
22714;DHT22;11524;50.846;4.326;2023-06-10T04:17:31;26.90;47.40
22714;DHT22;11524;50.846;4.326;2023-06-10T04:19:58;26.90;46.90
22714;DHT22;11524;50.846;4.326;2023-06-10T04:22:25;26.90;46.90
22714;DHT22;11524;50.846;4.326;2023-06-10T04:24:51;26.90;46.70
22714;DHT22;11524;50.846;4.326;2023-06-10T04:27:17;26.90;46.50
22714;DHT22;11524;50.846;4.326;2023-06-10T04:29:43;27.00;46.50
22714;DHT22;11524;50.846;4.326;2023-06-10T04:32:09;26.90;46.20
22714;DHT22;11524;50.846;4.326;2023-06-10T04:34:35;26.90;46.30
22714;DHT22;11524;50.846;4.326;2023-06-10T04:37:01;27.00;46.20
22714;DHT22;11524;50.846;4.326;2023-06-10T04:39:28;26.90;46.10
22714;DHT22;11524;50.846;4.326;2023-06-10T04:41:53;26.90;46.40
22714;DHT22;11524;50.846;4.326;2023-06-10T04:44:19;26.90;46.30
22714;DHT22;11524;50.846;4.326;2023-06-10T04:46:45;26.90;46.10
22714;DHT22;11524;50.846;4.326;2023-06-10T04:49:11;27.00;46.20
22714;DHT22;11524;50.846;4.326;2023-06-10T04:51:39;27.00;46.20
22714;DHT22;11524;50.846;4.326;2023-06-10T04:54:05;27.00;46.00
22714;DHT22;11524;50.846;4.326;2023-06-10T04:56:31;27.00;45.70
22714;DHT22;11524;50.846;4.326;2023-06-10T04:58:57;27.00;45.30
22714;DHT22;11524;50.846;4.326;2023-06-10T05:01:23;27.00;45.00
22714;DHT22;11524;50.846;4.326;2023-06-10T05:03:51;27.00;44.90
22714;DHT22;11524;50.846;4.326;2023-06-10T05:06:17;27.00;45.00
22714;DHT22;11524;50.846;4.326;2023-06-10T05:08:42;27.10;45.20
22714;DHT22;11524;50.846;4.326;2023-06-10T05:11:08;27.10;45.20
22714;DHT22;11524;50.846;4.326;2023-06-10T05:13:34;27.00;45.20
22714;DHT22;11524;50.846;4.326;2023-06-10T05:15:59;27.10;45.30
22714;DHT22;11524;50.846;4.326;2023-06-10T05:18:25;27.00;45.30
22714;DHT22;11524;50.846;4.326;2023-06-10T05:20:51;27.10;45.40
22714;DHT22;11524;50.846;4.326;2023-06-10T05:23:16;27.10;45.40
22714;DHT22;11524;50.846;4.326;2023-06-10T05:25:42;27.00;45.40
22714;DHT22;11524;50.846;4.326;2023-06-10T05:28:08;27.10;45.60
22714;DHT22;11524;50.846;4.326;2023-06-10T05:30:35;27.10;45.30
22714;DHT22;11524;50.846;4.326;2023-06-10T05:33:02;27.10;45.30
22714;DHT22;11524;50.846;4.326;2023-06-10T05:35:28;27.10;45.30
22714;DHT22;11524;50.846;4.326;2023-06-10T05:37:53;27.10;45.40
22714;DHT22;11524;50.846;4.326;2023-06-10T05:40:19;27.10;45.30
22714;DHT22;11524;50.846;4.326;2023-06-10T05:42:44;27.10;45.20
22714;DHT22;11524;50.846;4.326;2023-06-10T05:45:10;27.10;45.10
22714;DHT22;11524;50.846;4.326;2023-06-10T05:47:36;27.10;44.90
22714;DHT22;11524;50.846;4.326;2023-06-10T05:50:01;27.20;44.80
22714;DHT22;11524;50.846;4.326;2023-06-10T05:52:27;27.10;44.60
22714;DHT22;11524;50.846;4.326;2023-06-10T05:54:53;27.20;44.50
22714;DHT22;11524;50.846;4.326;2023-06-10T05:57:19;27.20;44.50
22714;DHT22;11524;50.846;4.326;2023-06-10T05:59:45;27.20;44.40
22714;DHT22;11524;50.846;4.326;2023-06-10T06:02:11;27.20;44.40
22714;DHT22;11524;50.846;4.326;2023-06-10T06:04:36;27.20;44.30
22714;DHT22;11524;50.846;4.326;2023-06-10T06:07:02;27.20;44.30
22714;DHT22;11524;50.846;4.326;2023-06-10T06:09:28;27.20;44.30
22714;DHT22;11524;50.846;4.326;2023-06-10T06:11:54;27.30;44.40
22714;DHT22;11524;50.846;4.326;2023-06-10T06:14:19;27.20;44.30
22714;DHT22;11524;50.846;4.326;2023-06-10T06:16:45;27.30;44.30
22714;DHT22;11524;50.846;4.326;2023-06-10T06:19:11;27.30;44.40
22714;DHT22;11524;50.846;4.326;2023-06-10T06:21:36;27.20;44.30
22714;DHT22;11524;50.846;4.326;2023-06-10T06:24:02;27.30;44.40
22714;DHT22;11524;50.846;4.326;2023-06-10T06:26:28;27.30;44.60
22714;DHT22;11524;50.846;4.326;2023-06-10T06:28:53;27.30;44.70
22714;DHT22;11524;50.846;4.326;2023-06-10T06:31:19;27.30;44.90
22714;DHT22;11524;50.846;4.326;2023-06-10T06:33:44;27.40;45.00
22714;DHT22;11524;50.846;4.326;2023-06-10T06:36:10;27.40;45.20
22714;DHT22;11524;50.846;4.326;2023-06-10T06:38:36;27.50;45.20
22714;DHT22;11524;50.846;4.326;2023-06-10T06:41:01;27.60;44.90
22714;DHT22;11524;50.846;4.326;2023-06-10T06:43:29;27.80;44.50
22714;DHT22;11524;50.846;4.326;2023-06-10T06:45:56;28.10;44.20
22714;DHT22;11524;50.846;4.326;2023-06-10T06:48:23;28.40;43.70
22714;DHT22;11524;50.846;4.326;2023-06-10T06:50:48;28.70;43.00
22714;DHT22;11524;50.846;4.326;2023-06-10T06:53:14;29.00;42.90
22714;DHT22;11524;50.846;4.326;2023-06-10T06:55:40;29.20;42.30
22714;DHT22;11524;50.846;4.326;2023-06-10T06:58:05;29.40;41.80
22714;DHT22;11524;50.846;4.326;2023-06-10T07:00:32;29.60;41.50
22714;DHT22;11524;50.846;4.326;2023-06-10T07:02:57;29.80;41.30
22714;DHT22;11524;50.846;4.326;2023-06-10T07:05:24;29.90;40.90
22714;DHT22;11524;50.846;4.326;2023-06-10T07:07:53;30.10;41.30
22714;DHT22;11524;50.846;4.326;2023-06-10T07:10:25;30.20;40.50
22714;DHT22;11524;50.846;4.326;2023-06-10T07:12:51;30.30;40.20
22714;DHT22;11524;50.846;4.326;2023-06-10T07:15:17;30.40;40.20
22714;DHT22;11524;50.846;4.326;2023-06-10T07:17:43;30.50;40.00
22714;DHT22;11524;50.846;4.326;2023-06-10T07:20:09;30.60;39.90
22714;DHT22;11524;50.846;4.326;2023-06-10T07:22:35;30.70;39.80
22714;DHT22;11524;50.846;4.326;2023-06-10T07:25:01;30.80;39.70
22714;DHT22;11524;50.846;4.326;2023-06-10T07:27:26;30.90;39.60
22714;DHT22;11524;50.846;4.326;2023-06-10T07:29:52;31.00;39.50
22714;DHT22;11524;50.846;4.326;2023-06-10T07:32:18;31.10;39.30
22714;DHT22;11524;50.846;4.326;2023-06-10T07:34:46;31.30;39.10
22714;DHT22;11524;50.846;4.326;2023-06-10T07:37:11;31.40;39.10
22714;DHT22;11524;50.846;4.326;2023-06-10T07:39:37;31.40;38.90
22714;DHT22;11524;50.846;4.326;2023-06-10T07:42:02;31.50;38.90
22714;DHT22;11524;50.846;4.326;2023-06-10T07:44:28;31.50;38.80
22714;DHT22;11524;50.846;4.326;2023-06-10T07:46:54;31.50;38.80
22714;DHT22;11524;50.846;4.326;2023-06-10T07:49:20;31.60;38.60
22714;DHT22;11524;50.846;4.326;2023-06-10T07:51:45;31.60;38.50
22714;DHT22;11524;50.846;4.326;2023-06-10T07:54:11;31.60;38.50
22714;DHT22;11524;50.846;4.326;2023-06-10T07:56:38;31.50;38.70
22714;DHT22;11524;50.846;4.326;2023-06-10T07:59:03;31.50;38.90
22714;DHT22;11524;50.846;4.326;2023-06-10T08:01:29;31.40;38.90
22714;DHT22;11524;50.846;4.326;2023-06-10T08:03:55;31.20;38.80
22714;DHT22;11524;50.846;4.326;2023-06-10T08:06:21;31.20;39.20
22714;DHT22;11524;50.846;4.326;2023-06-10T08:08:46;31.10;39.30
22714;DHT22;11524;50.846;4.326;2023-06-10T08:11:13;31.00;39.50
22714;DHT22;11524;50.846;4.326;2023-06-10T08:13:38;31.00;39.60
22714;DHT22;11524;50.846;4.326;2023-06-10T08:16:05;31.00;39.70
22714;DHT22;11524;50.846;4.326;2023-06-10T08:18:31;30.90;39.80
22714;DHT22;11524;50.846;4.326;2023-06-10T08:20:57;30.80;39.90
22714;DHT22;11524;50.846;4.326;2023-06-10T08:23:22;30.70;39.90
22714;DHT22;11524;50.846;4.326;2023-06-10T08:25:48;30.50;39.20
22714;DHT22;11524;50.846;4.326;2023-06-10T08:28:14;30.40;39.90
22714;DHT22;11524;50.846;4.326;2023-06-10T08:30:40;30.30;40.30
22714;DHT22;11524;50.846;4.326;2023-06-10T08:33:05;30.20;40.50
22714;DHT22;11524;50.846;4.326;2023-06-10T08:35:31;30.20;40.80
22714;DHT22;11524;50.846;4.326;2023-06-10T08:37:57;30.20;40.80
22714;DHT22;11524;50.846;4.326;2023-06-10T08:40:22;30.20;41.00
22714;DHT22;11524;50.846;4.326;2023-06-10T08:43:05;30.40;41.00
22714;DHT22;11524;50.846;4.326;2023-06-10T08:45:31;30.50;40.90
22714;DHT22;11524;50.846;4.326;2023-06-10T08:47:57;30.60;40.60
22714;DHT22;11524;50.846;4.326;2023-06-10T08:50:24;30.80;40.40
22714;DHT22;11524;50.846;4.326;2023-06-10T08:52:54;31.00;40.20
22714;DHT22;11524;50.846;4.326;2023-06-10T08:55:30;31.20;39.90
22714;DHT22;11524;50.846;4.326;2023-06-10T08:58:00;31.40;39.60
22714;DHT22;11524;50.846;4.326;2023-06-10T09:00:26;31.50;39.90
22714;DHT22;11524;50.846;4.326;2023-06-10T09:02:52;31.60;39.00
22714;DHT22;11524;50.846;4.326;2023-06-10T09:05:18;31.80;38.80
22714;DHT22;11524;50.846;4.326;2023-06-10T09:07:46;31.80;38.60
22714;DHT22;11524;50.846;4.326;2023-06-10T09:10:12;31.80;38.50
22714;DHT22;11524;50.846;4.326;2023-06-10T09:12:38;31.90;38.50
22714;DHT22;11524;50.846;4.326;2023-06-10T09:15:05;31.90;38.40
22714;DHT22;11524;50.846;4.326;2023-06-10T09:17:31;31.80;38.40
22714;DHT22;11524;50.846;4.326;2023-06-10T09:19:57;31.80;38.40
22714;DHT22;11524;50.846;4.326;2023-06-10T09:22:23;31.70;38.50
22714;DHT22;11524;50.846;4.326;2023-06-10T09:24:49;31.60;38.50
22714;DHT22;11524;50.846;4.326;2023-06-10T09:27:15;31.50;38.60
22714;DHT22;11524;50.846;4.326;2023-06-10T09:32:13;31.30;38.90
22714;DHT22;11524;50.846;4.326;2023-06-10T09:34:39;31.20;39.00
22714;DHT22;11524;50.846;4.326;2023-06-10T09:37:05;31.10;39.10
22714;DHT22;11524;50.846;4.326;2023-06-10T09:39:31;30.90;39.30
22714;DHT22;11524;50.846;4.326;2023-06-10T09:41:57;30.80;39.50
22714;DHT22;11524;50.846;4.326;2023-06-10T09:44:22;30.60;40.30
22714;DHT22;11524;50.846;4.326;2023-06-10T09:46:50;30.50;40.60
22714;DHT22;11524;50.846;4.326;2023-06-10T09:49:17;30.30;40.20
22714;DHT22;11524;50.846;4.326;2023-06-10T09:51:50;30.20;40.40
22714;DHT22;11524;50.846;4.326;2023-06-10T09:54:16;30.00;40.60
22714;DHT22;11524;50.846;4.326;2023-06-10T09:56:41;30.00;40.60
22714;DHT22;11524;50.846;4.326;2023-06-10T09:59:08;29.90;40.80
22714;DHT22;11524;50.846;4.326;2023-06-10T10:01:34;29.80;40.90
22714;DHT22;11524;50.846;4.326;2023-06-10T10:04:00;29.70;41.00
22714;DHT22;11524;50.846;4.326;2023-06-10T10:06:27;29.70;41.10
22714;DHT22;11524;50.846;4.326;2023-06-10T10:08:54;29.60;41.10
22714;DHT22;11524;50.846;4.326;2023-06-10T10:11:21;29.60;41.20
22714;DHT22;11524;50.846;4.326;2023-06-10T10:13:52;29.50;41.20
22714;DHT22;11524;50.846;4.326;2023-06-10T10:16:20;29.50;41.40
22714;DHT22;11524;50.846;4.326;2023-06-10T10:18:55;29.50;41.40
22714;DHT22;11524;50.846;4.326;2023-06-10T10:21:23;29.50;41.40
22714;DHT22;11524;50.846;4.326;2023-06-10T10:24:05;29.40;41.30
22714;DHT22;11524;50.846;4.326;2023-06-10T10:26:33;29.40;41.40
22714;DHT22;11524;50.846;4.326;2023-06-10T10:29:14;29.40;41.40
22714;DHT22;11524;50.846;4.326;2023-06-10T10:31:42;29.40;41.50
22714;DHT22;11524;50.846;4.326;2023-06-10T10:34:13;29.30;41.50
22714;DHT22;11524;50.846;4.326;2023-06-10T10:36:41;29.30;42.00
22714;DHT22;11524;50.846;4.326;2023-06-10T10:39:07;29.30;41.50
22714;DHT22;11524;50.846;4.326;2023-06-10T10:41:34;29.30;41.40
22714;DHT22;11524;50.846;4.326;2023-06-10T10:44:02;29.30;41.50
22714;DHT22;11524;50.846;4.326;2023-06-10T10:46:30;29.30;41.40
22714;DHT22;11524;50.846;4.326;2023-06-10T10:49:07;29.20;41.30
22714;DHT22;11524;50.846;4.326;2023-06-10T10:51:36;29.20;41.30
22714;DHT22;11524;50.846;4.326;2023-06-10T10:54:15;29.20;41.30
22714;DHT22;11524;50.846;4.326;2023-06-10T10:57:10;29.20;42.00
22714;DHT22;11524;50.846;4.326;2023-06-10T10:59:55;29.20;41.50
22714;DHT22;11524;50.846;4.326;2023-06-10T11:02:44;29.20;41.40
22714;DHT22;11524;50.846;4.326;2023-06-10T11:05:14;29.20;41.20
22714;DHT22;11524;50.846;4.326;2023-06-10T11:07:40;29.20;41.30
22714;DHT22;11524;50.846;4.326;2023-06-10T11:10:13;29.20;41.10
22714;DHT22;11524;50.846;4.326;2023-06-10T11:12:51;29.20;41.00
22714;DHT22;11524;50.846;4.326;2023-06-10T11:15:23;29.10;40.90
22714;DHT22;11524;50.846;4.326;2023-06-10T11:21:00;29.10;40.90
22714;DHT22;11524;50.846;4.326;2023-06-10T11:28:39;29.10;41.70
22714;DHT22;11524;50.846;4.326;2023-06-10T11:31:05;29.10;41.70
22714;DHT22;11524;50.846;4.326;2023-06-10T11:33:31;29.10;41.90
22714;DHT22;11524;50.846;4.326;2023-06-10T11:35:57;29.00;41.80
22714;DHT22;11524;50.846;4.326;2023-06-10T11:38:24;29.00;41.90
22714;DHT22;11524;50.846;4.326;2023-06-10T11:40:50;29.00;41.80
22714;DHT22;11524;50.846;4.326;2023-06-10T11:43:17;29.00;41.60
22714;DHT22;11524;50.846;4.326;2023-06-10T11:45:43;29.00;41.30
22714;DHT22;11524;50.846;4.326;2023-06-10T11:48:10;29.00;41.60
22714;DHT22;11524;50.846;4.326;2023-06-10T11:50:36;29.00;41.70
22714;DHT22;11524;50.846;4.326;2023-06-10T11:53:02;29.00;41.60
22714;DHT22;11524;50.846;4.326;2023-06-10T11:58:21;29.00;41.40
22714;DHT22;11524;50.846;4.326;2023-06-10T12:00:48;29.00;41.30
22714;DHT22;11524;50.846;4.326;2023-06-10T12:03:15;29.00;41.10
22714;DHT22;11524;50.846;4.326;2023-06-10T12:06:03;29.00;40.90
22714;DHT22;11524;50.846;4.326;2023-06-10T12:08:29;29.00;40.90
22714;DHT22;11524;50.846;4.326;2023-06-10T12:10:56;29.00;40.80
22714;DHT22;11524;50.846;4.326;2023-06-10T12:13:23;29.00;40.60
22714;DHT22;11524;50.846;4.326;2023-06-10T12:15:49;29.00;40.50
22714;DHT22;11524;50.846;4.326;2023-06-10T12:18:19;29.00;41.20
22714;DHT22;11524;50.846;4.326;2023-06-10T12:20:45;29.00;40.30
22714;DHT22;11524;50.846;4.326;2023-06-10T12:23:12;29.00;40.10
22714;DHT22;11524;50.846;4.326;2023-06-10T12:25:38;29.00;40.30
22714;DHT22;11524;50.846;4.326;2023-06-10T12:28:05;29.00;40.40
22714;DHT22;11524;50.846;4.326;2023-06-10T12:30:32;28.90;40.50
22714;DHT22;11524;50.846;4.326;2023-06-10T12:32:58;29.00;40.60
22714;DHT22;11524;50.846;4.326;2023-06-10T12:35:26;29.00;40.60
22714;DHT22;11524;50.846;4.326;2023-06-10T12:37:57;28.90;40.50
22714;DHT22;11524;50.846;4.326;2023-06-10T12:40:38;29.00;40.50
22714;DHT22;11524;50.846;4.326;2023-06-10T12:43:06;28.90;40.40
22714;DHT22;11524;50.846;4.326;2023-06-10T12:45:37;28.90;40.30
22714;DHT22;11524;50.846;4.326;2023-06-10T12:48:09;28.90;40.30
22714;DHT22;11524;50.846;4.326;2023-06-10T12:50:36;28.90;40.30
22714;DHT22;11524;50.846;4.326;2023-06-10T12:53:05;28.90;40.30
22714;DHT22;11524;50.846;4.326;2023-06-10T12:55:31;28.90;40.20
22714;DHT22;11524;50.846;4.326;2023-06-10T12:57:58;28.90;40.30
22714;DHT22;11524;50.846;4.326;2023-06-10T13:00:24;28.90;40.40
22714;DHT22;11524;50.846;4.326;2023-06-10T13:03:04;28.90;40.50
22714;DHT22;11524;50.846;4.326;2023-06-10T13:05:33;28.90;40.50
22714;DHT22;11524;50.846;4.326;2023-06-10T13:07:59;28.90;40.50
22714;DHT22;11524;50.846;4.326;2023-06-10T13:10:25;28.90;40.70
22714;DHT22;11524;50.846;4.326;2023-06-10T13:12:51;28.90;40.50
22714;DHT22;11524;50.846;4.326;2023-06-10T13:19:38;28.90;40.60
22714;DHT22;11524;50.846;4.326;2023-06-10T13:32:22;29.00;41.00
22714;DHT22;11524;50.846;4.326;2023-06-10T13:35:00;29.00;41.00
22714;DHT22;11524;50.846;4.326;2023-06-10T13:37:27;29.00;41.00
22714;DHT22;11524;50.846;4.326;2023-06-10T13:39:52;28.90;40.90
22714;DHT22;11524;50.846;4.326;2023-06-10T13:42:21;29.00;41.00
22714;DHT22;11524;50.846;4.326;2023-06-10T13:45:25;29.00;41.00
22714;DHT22;11524;50.846;4.326;2023-06-10T13:55:17;29.00;41.20
22714;DHT22;11524;50.846;4.326;2023-06-10T13:57:52;29.00;41.30
22714;DHT22;11524;50.846;4.326;2023-06-10T14:00:29;29.00;41.40
22714;DHT22;11524;50.846;4.326;2023-06-10T14:03:06;29.00;41.60
22714;DHT22;11524;50.846;4.326;2023-06-10T14:05:35;29.00;41.60
22714;DHT22;11524;50.846;4.326;2023-06-10T14:08:07;29.00;41.60
22714;DHT22;11524;50.846;4.326;2023-06-10T14:10:33;29.00;41.60
22714;DHT22;11524;50.846;4.326;2023-06-10T14:12:58;29.00;41.50
22714;DHT22;11524;50.846;4.326;2023-06-10T14:15:25;29.00;41.60
22714;DHT22;11524;50.846;4.326;2023-06-10T14:17:51;29.00;41.60
22714;DHT22;11524;50.846;4.326;2023-06-10T14:20:17;29.00;41.60
22714;DHT22;11524;50.846;4.326;2023-06-10T14:22:42;29.10;41.50
22714;DHT22;11524;50.846;4.326;2023-06-10T14:25:29;29.00;41.30
22714;DHT22;11524;50.846;4.326;2023-06-10T14:41:44;29.00;39.80
22714;DHT22;11524;50.846;4.326;2023-06-10T14:47:41;29.00;41.00
22714;DHT22;11524;50.846;4.326;2023-06-10T14:50:21;29.10;41.50
22714;DHT22;11524;50.846;4.326;2023-06-10T14:53:34;29.10;41.50
22714;DHT22;11524;50.846;4.326;2023-06-10T15:03:11;29.10;41.90
22714;DHT22;11524;50.846;4.326;2023-06-10T15:06:01;29.10;41.80
22714;DHT22;11524;50.846;4.326;2023-06-10T15:08:55;29.00;41.80
22714;DHT22;11524;50.846;4.326;2023-06-10T15:11:40;29.00;41.70
22714;DHT22;11524;50.846;4.326;2023-06-10T15:14:06;29.10;41.60
22714;DHT22;11524;50.846;4.326;2023-06-10T15:16:32;29.00;41.60
22714;DHT22;11524;50.846;4.326;2023-06-10T15:18:57;29.00;42.10
22714;DHT22;11524;50.846;4.326;2023-06-10T15:21:23;29.00;42.90
22714;DHT22;11524;50.846;4.326;2023-06-10T15:23:48;29.00;41.90
22714;DHT22;11524;50.846;4.326;2023-06-10T15:26:14;29.10;41.00
22714;DHT22;11524;50.846;4.326;2023-06-10T15:28:40;29.10;40.20
22714;DHT22;11524;50.846;4.326;2023-06-10T15:31:06;29.10;40.40
22714;DHT22;11524;50.846;4.326;2023-06-10T15:33:33;29.00;40.40
22714;DHT22;11524;50.846;4.326;2023-06-10T15:35:58;29.00;40.80
22714;DHT22;11524;50.846;4.326;2023-06-10T15:38:24;29.00;40.10
22714;DHT22;11524;50.846;4.326;2023-06-10T15:40:50;29.00;39.40
22714;DHT22;11524;50.846;4.326;2023-06-10T15:43:15;29.00;39.10
22714;DHT22;11524;50.846;4.326;2023-06-10T15:45:41;29.00;39.30
22714;DHT22;11524;50.846;4.326;2023-06-10T15:48:07;29.00;39.80
22714;DHT22;11524;50.846;4.326;2023-06-10T15:50:32;29.00;40.60
22714;DHT22;11524;50.846;4.326;2023-06-10T15:52:58;29.00;41.60
22714;DHT22;11524;50.846;4.326;2023-06-10T15:55:23;29.00;40.80
22714;DHT22;11524;50.846;4.326;2023-06-10T15:57:51;29.10;41.70
22714;DHT22;11524;50.846;4.326;2023-06-10T16:00:16;29.10;42.10
22714;DHT22;11524;50.846;4.326;2023-06-10T16:02:42;29.10;41.00
22714;DHT22;11524;50.846;4.326;2023-06-10T16:05:08;29.10;41.30
22714;DHT22;11524;50.846;4.326;2023-06-10T16:07:33;29.00;42.10
22714;DHT22;11524;50.846;4.326;2023-06-10T16:09:59;29.10;42.40
22714;DHT22;11524;50.846;4.326;2023-06-10T16:12:25;29.00;42.40
22714;DHT22;11524;50.846;4.326;2023-06-10T16:14:50;29.00;42.30
22714;DHT22;11524;50.846;4.326;2023-06-10T16:17:16;29.00;42.10
22714;DHT22;11524;50.846;4.326;2023-06-10T16:19:42;29.00;42.20
22714;DHT22;11524;50.846;4.326;2023-06-10T16:22:07;29.00;41.90
22714;DHT22;11524;50.846;4.326;2023-06-10T16:24:33;29.10;41.20
22714;DHT22;11524;50.846;4.326;2023-06-10T16:26:58;29.10;40.70
22714;DHT22;11524;50.846;4.326;2023-06-10T16:29:26;29.10;40.60
22714;DHT22;11524;50.846;4.326;2023-06-10T16:31:51;29.10;41.80
22714;DHT22;11524;50.846;4.326;2023-06-10T16:34:17;29.10;42.40
22714;DHT22;11524;50.846;4.326;2023-06-10T16:36:42;29.10;42.50
22714;DHT22;11524;50.846;4.326;2023-06-10T16:39:08;29.10;42.00
22714;DHT22;11524;50.846;4.326;2023-06-10T16:41:34;29.10;42.50